Time;durP1;ratioP1;P1;durP2;ratioP2;P2;SDS_P1;SDS_P2;PMS_P1;PMS_P2;Temp;Humidity;BMP_temperature;BMP_pressure;BME280_temperature;BME280_humidity;BME280_pressure;Samples;Min_cycle;Max_cycle;Signal;HPM_P1;HPM_P2
2020/12/20 00:00:32;;;;;;;28.35;12.95;;;;;;;5.79;72.02;100228.19;5073526;28;20575;-75
2020/12/20 00:02:58;;;;;;;38.33;15.88;;;;;;;5.80;72.09;100228.97;5082930;28;20031;-76
2020/12/20 00:05:24;;;;;;;33.88;15.02;;;;;;;5.73;72.36;100213.91;5075074;28;20479;-76
2020/12/20 00:07:51;;;;;;;29.38;15.13;;;;;;;5.82;72.00;100222.44;5071849;28;20115;-75
2020/12/20 00:10:18;;;;;;;39.35;16.45;;;;;;;5.81;72.44;100215.50;5068703;28;20048;-75
2020/12/20 00:12:44;;;;;;;36.22;14.65;;;;;;;5.80;72.14;100216.53;5074844;28;20128;-76
2020/12/20 00:15:10;;;;;;;38.03;15.50;;;;;;;5.75;72.13;100208.41;5070954;28;20462;-76
2020/12/20 00:17:35;;;;;;;31.65;14.32;;;;;;;5.83;72.25;100229.38;5069585;28;20149;-76
2020/12/20 00:20:04;;;;;;;37.25;14.73;;;;;;;5.80;72.57;100223.66;5070406;28;20515;-77
2020/12/20 00:22:30;;;;;;;34.70;15.57;;;;;;;5.82;72.88;100225.06;5071527;28;20082;-76
2020/12/20 00:24:55;;;;;;;43.63;15.23;;;;;;;5.78;72.23;100223.91;5077606;28;20024;-77
2020/12/20 00:27:21;;;;;;;38.25;16.73;;;;;;;5.79;72.47;100228.19;5084231;28;20090;-82
2020/12/20 00:29:46;;;;;;;39.88;15.75;;;;;;;5.81;72.67;100239.41;5072483;28;20027;-79
2020/12/20 00:32:12;;;;;;;32.63;14.32;;;;;;;5.74;72.45;100225.38;5070524;28;20043;-79
2020/12/20 00:34:38;;;;;;;36.95;14.50;;;;;;;5.82;72.43;100237.56;5069121;28;20041;-78
2020/12/20 00:37:05;;;;;;;35.83;14.48;;;;;;;5.81;72.99;100231.44;5070179;28;20111;-79
2020/12/20 00:39:31;;;;;;;29.17;13.57;;;;;;;5.81;72.26;100238.56;5083620;28;20032;-79
2020/12/20 00:41:59;;;;;;;29.58;13.18;;;;;;;5.83;72.51;100239.19;5073578;28;20031;-77
2020/12/20 00:44:25;;;;;;;30.85;13.25;;;;;;;5.81;72.71;100242.06;5081901;28;20032;-76
2020/12/20 00:46:52;;;;;;;29.17;12.40;;;;;;;5.80;72.21;100235.13;5088527;28;20047;-76
2020/12/20 00:49:18;;;;;;;33.50;13.65;;;;;;;5.80;72.04;100235.13;5079469;28;20036;-77
2020/12/20 00:51:43;;;;;;;32.55;14.88;;;;;;;5.74;72.22;100226.16;5069692;28;20051;-75
2020/12/20 00:54:10;;;;;;;28.80;12.55;;;;;;;5.77;72.55;100224.91;5079472;28;20398;-75
2020/12/20 00:56:35;;;;;;;30.20;13.45;;;;;;;5.80;72.22;100229.81;5088012;28;20070;-75
2020/12/20 00:59:01;;;;;;;27.83;13.05;;;;;;;5.77;72.35;100227.56;5079363;28;20060;-79
2020/12/20 01:01:26;;;;;;;32.08;13.27;;;;;;;5.80;72.23;100223.66;5075866;28;20491;-79
2020/12/20 01:03:52;;;;;;;33.30;14.55;;;;;;;5.80;71.99;100224.50;5089258;28;20032;-77
2020/12/20 01:06:20;;;;;;;31.95;12.82;;;;;;;5.75;71.73;100219.84;5089905;28;20085;-78
2020/12/20 01:08:46;;;;;;;30.33;12.77;;;;;;;5.71;71.83;100208.03;5073248;28;20411;-75
2020/12/20 01:11:13;;;;;;;26.92;11.48;;;;;;;5.69;72.58;100212.72;5083826;28;20028;-76
2020/12/20 01:13:49;;;;;;;29.27;12.32;;;;;;;5.55;72.75;100208.53;5071838;28;20056;-74
2020/12/20 01:16:24;;;;;;;31.38;13.68;;;;;;;5.64;73.13;100223.19;5073164;28;20028;-74
2020/12/20 01:18:49;;;;;;;32.67;13.13;;;;;;;5.63;72.99;100216.25;5079775;28;20028;-79
2020/12/20 01:21:16;;;;;;;31.35;13.07;;;;;;;5.58;72.86;100216.06;5069792;28;20043;-75
2020/12/20 01:23:41;;;;;;;25.40;12.13;;;;;;;5.64;72.77;100219.69;5069182;28;20093;-78
2020/12/20 01:26:07;;;;;;;34.08;13.27;;;;;;;5.66;73.07;100217.66;5075943;28;20020;-79
2020/12/20 01:28:33;;;;;;;22.95;11.73;;;;;;;5.56;72.70;100200.34;5087589;28;20056;-78
2020/12/20 01:30:59;;;;;;;29.70;13.32;;;;;;;5.48;73.08;100184.72;5081602;28;20124;-75
2020/12/20 01:33:25;;;;;;;32.15;13.45;;;;;;;5.63;72.94;100200.31;5070354;28;20071;-75
2020/12/20 01:35:51;;;;;;;25.88;12.80;;;;;;;5.66;72.91;100210.50;5070219;28;20503;-78
2020/12/20 01:38:16;;;;;;;26.48;13.70;;;;;;;5.68;72.92;100208.44;5076835;28;20060;-75
2020/12/20 01:40:48;;;;;;;23.08;11.80;;;;;;;5.70;73.06;100214.34;5082454;28;20032;-77
2020/12/20 01:43:14;;;;;;;29.70;13.00;;;;;;;5.65;73.05;100197.44;5078727;28;20448;-78
2020/12/20 01:45:42;;;;;;;24.50;13.05;;;;;;;5.64;73.19;100204.59;5071649;28;20033;-78
2020/12/20 01:48:09;;;;;;;30.20;12.68;;;;;;;5.64;73.14;100199.28;5088709;28;20028;-78
2020/12/20 01:50:35;;;;;;;36.22;14.20;;;;;;;5.62;73.00;100188.06;5069402;28;20488;-76
2020/12/20 01:53:02;;;;;;;37.22;16.65;;;;;;;5.61;73.00;100192.59;5069819;28;20108;-75
2020/12/20 01:55:28;;;;;;;31.92;14.65;;;;;;;5.63;73.06;100194.19;5068758;28;20033;-76
2020/12/20 01:57:55;;;;;;;35.30;15.77;;;;;;;5.63;72.96;100192.34;5067978;28;20021;-76
2020/12/20 02:00:21;;;;;;;32.35;14.43;;;;;;;5.63;73.29;100189.69;5068309;28;20432;-76
2020/12/20 02:02:46;;;;;;;37.50;17.02;;;;;;;5.64;73.42;100191.34;5069065;28;20584;-76
2020/12/20 02:05:12;;;;;;;37.58;14.50;;;;;;;5.63;73.29;100192.34;5069279;28;20032;-77
2020/12/20 02:07:38;;;;;;;29.63;13.55;;;;;;;5.64;73.41;100190.50;5069425;28;20020;-75
2020/12/20 02:10:03;;;;;;;35.15;15.30;;;;;;;5.63;73.46;100188.88;5068261;28;20093;-75
2020/12/20 02:12:29;;;;;;;36.33;15.77;;;;;;;5.62;73.73;100193.38;5068728;28;20032;-75
2020/12/20 02:14:54;;;;;;;44.33;17.98;;;;;;;5.59;73.46;100197.28;5068855;28;20036;-75
2020/12/20 02:17:20;;;;;;;36.08;15.75;;;;;;;5.63;73.57;100194.19;5070168;28;20070;-75
2020/12/20 02:19:45;;;;;;;44.10;17.25;;;;;;;5.65;73.51;100197.44;5068522;28;20028;-75
2020/12/20 02:22:11;;;;;;;37.65;15.35;;;;;;;5.64;73.52;100187.84;5068832;28;20552;-76
2020/12/20 02:24:36;;;;;;;36.83;13.85;;;;;;;5.62;73.39;100185.41;5083633;28;20029;-74
2020/12/20 02:27:02;;;;;;;33.25;14.10;;;;;;;5.59;73.80;100184.00;5080825;28;20027;-74
2020/12/20 02:29:29;;;;;;;37.75;14.85;;;;;;;5.67;73.27;100190.88;5088961;28;20024;-75
2020/12/20 02:31:54;;;;;;;29.45;13.38;;;;;;;5.67;73.45;100184.78;5071613;28;20056;-74
2020/12/20 02:34:19;;;;;;;31.15;14.20;;;;;;;5.67;73.46;100192.75;5068643;28;20153;-74
2020/12/20 02:36:45;;;;;;;32.10;12.85;;;;;;;5.67;73.88;100187.44;5078110;28;20123;-74
2020/12/20 02:39:11;;;;;;;32.13;13.70;;;;;;;5.69;73.80;100188.84;5088882;28;20032;-73
2020/12/20 02:41:36;;;;;;;27.00;11.30;;;;;;;5.67;74.01;100190.88;5078277;28;20047;-74
2020/12/20 02:44:03;;;;;;;26.88;12.10;;;;;;;5.66;74.08;100185.81;5072306;28;20032;-73
2020/12/20 02:46:30;;;;;;;30.88;12.50;;;;;;;5.59;74.07;100184.00;5080501;28;20028;-72
2020/12/20 02:48:58;;;;;;;34.42;12.93;;;;;;;5.58;74.29;100185.03;5084973;28;20038;-73
2020/12/20 02:51:24;;;;;;;36.78;14.45;;;;;;;5.54;74.59;100183.03;5072483;28;20024;-74
2020/12/20 02:53:50;;;;;;;29.88;13.55;;;;;;;5.52;73.99;100185.09;5071705;28;20032;-76
2020/12/20 02:56:19;;;;;;;29.40;12.68;;;;;;;5.53;74.33;100186.69;5074517;28;20031;-75
2020/12/20 02:58:45;;;;;;;31.10;12.55;;;;;;;5.49;74.08;100182.84;5071592;28;20115;-74
2020/12/20 03:01:11;;;;;;;35.55;14.65;;;;;;;5.53;74.13;100192.84;5079440;28;20097;-75
2020/12/20 03:03:36;;;;;;;30.45;14.60;;;;;;;5.53;73.79;100194.66;5092514;28;20028;-76
2020/12/20 03:06:01;;;;;;;36.65;15.00;;;;;;;5.49;74.46;100194.28;5072292;28;20502;-75
2020/12/20 03:08:27;;;;;;;30.70;14.80;;;;;;;5.48;74.08;100192.66;5072024;28;20025;-76
2020/12/20 03:10:52;;;;;;;32.30;14.27;;;;;;;5.44;73.63;100180.84;5073791;28;20107;-76
2020/12/20 03:13:18;;;;;;;40.13;16.25;;;;;;;5.37;74.39;100185.38;5082102;28;20479;-74
2020/12/20 03:15:44;;;;;;;38.65;16.45;;;;;;;5.33;74.34;100190.28;5083412;28;20036;-74
2020/12/20 03:18:10;;;;;;;36.60;15.52;;;;;;;5.33;74.40;100194.78;5077186;28;20103;-78
2020/12/20 03:20:35;;;;;;;35.53;16.08;;;;;;;5.33;74.43;100194.78;5090224;28;20555;-78
2020/12/20 03:23:01;;;;;;;46.50;16.02;;;;;;;5.27;74.43;100194.63;5071658;28;20123;-79
2020/12/20 03:25:27;;;;;;;39.47;16.27;;;;;;;5.26;74.53;100186.84;5071563;28;20453;-76
2020/12/20 03:27:53;;;;;;;40.17;14.82;;;;;;;5.26;74.95;100185.03;5071214;28;20119;-75
2020/12/20 03:30:18;;;;;;;39.63;15.45;;;;;;;5.23;74.70;100188.09;5083105;28;20028;-75
2020/12/20 03:32:44;;;;;;;29.42;13.68;;;;;;;5.19;73.90;100189.56;5075814;28;20575;-78
2020/12/20 03:35:09;;;;;;;35.65;16.98;;;;;;;5.16;73.97;100189.97;5071176;28;20033;-75
2020/12/20 03:37:35;;;;;;;48.10;18.35;;;;;;;5.13;74.39;100198.34;5076072;28;20020;-75
2020/12/20 03:40:01;;;;;;;50.35;20.42;;;;;;;5.07;74.89;100194.69;5077606;28;20041;-74
2020/12/20 03:42:26;;;;;;;35.30;16.45;;;;;;;5.07;74.51;100197.34;5087558;28;20038;-73
2020/12/20 03:44:52;;;;;;;46.33;17.42;;;;;;;5.06;74.25;100195.72;5092697;28;20032;-74
2020/12/20 03:47:17;;;;;;;40.92;17.05;;;;;;;5.07;74.51;100183.28;5083869;28;20028;-74
2020/12/20 03:49:43;;;;;;;41.22;17.60;;;;;;;5.17;74.48;100204.06;5085211;28;20039;-73
2020/12/20 03:52:08;;;;;;;46.25;19.05;;;;;;;5.17;74.42;100191.59;5077427;28;20496;-73
2020/12/20 03:54:33;;;;;;;38.40;17.10;;;;;;;5.24;74.71;100197.69;5070664;28;20028;-75
2020/12/20 03:56:59;;;;;;;41.97;17.73;;;;;;;5.29;74.37;100191.75;5071618;28;20028;-73
2020/12/20 03:59:24;;;;;;;35.13;16.45;;;;;;;5.33;74.18;100194.78;5071170;28;20031;-76
2020/12/20 04:01:50;;;;;;;41.13;18.33;;;;;;;5.40;74.08;100198.22;5080358;28;20028;-77
2020/12/20 04:04:16;;;;;;;39.70;17.88;;;;;;;5.35;73.65;100184.78;5081714;28;20467;-75
2020/12/20 04:06:42;;;;;;;27.75;14.27;;;;;;;5.42;73.49;100182.88;5070974;28;20064;-76
2020/12/20 04:09:07;;;;;;;37.20;16.70;;;;;;;5.23;73.54;100166.88;5070728;28;20094;-73
2020/12/20 04:11:32;;;;;;;33.65;13.57;;;;;;;5.40;72.48;100185.75;5063551;28;20507;-76
2020/12/20 04:13:58;;;;;;;29.58;13.77;;;;;;;5.40;72.24;100195.56;5050459;28;20037;-76
2020/12/20 04:16:23;;;;;;;37.17;16.70;;;;;;;5.40;72.75;100203.53;5054879;28;20024;-74
2020/12/20 04:18:49;;;;;;;35.55;14.43;;;;;;;5.40;73.50;100206.97;5070341;28;20043;-74
2020/12/20 04:21:14;;;;;;;37.42;17.77;;;;;;;5.41;73.44;100208.59;5071338;28;20119;-74
2020/12/20 04:23:39;;;;;;;43.33;17.58;;;;;;;5.47;73.36;100214.09;5090852;28;20028;-72
2020/12/20 04:26:05;;;;;;;42.63;19.48;;;;;;;5.48;73.44;100205.94;5091542;28;20054;-74
2020/12/20 04:28:30;;;;;;;49.60;23.33;;;;;;;5.48;73.66;100205.09;5090708;28;20127;-77
2020/12/20 04:30:56;;;;;;;44.20;18.73;;;;;;;5.51;73.78;100217.97;5078193;28;20063;-76
2020/12/20 04:33:21;;;;;;;33.65;15.95;;;;;;;5.52;73.54;100214.28;5089791;28;20414;-75
2020/12/20 04:35:47;;;;;;;39.50;16.00;;;;;;;5.56;73.30;100210.16;5074328;28;20428;-75
2020/12/20 04:38:12;;;;;;;33.17;14.43;;;;;;;5.56;73.56;100210.16;5070194;28;20101;-75
2020/12/20 04:40:38;;;;;;;37.67;16.88;;;;;;;5.59;73.67;100217.69;5070276;28;20123;-77
2020/12/20 04:43:05;;;;;;;29.73;13.63;;;;;;;5.60;73.74;100221.97;5083637;28;20509;-77
2020/12/20 04:45:31;;;;;;;32.65;13.98;;;;;;;5.55;73.47;100221.81;5070047;28;20550;-76
2020/12/20 04:47:58;;;;;;;37.28;13.75;;;;;;;5.49;73.89;100217.34;5090271;28;20028;-74
2020/12/20 04:50:24;;;;;;;33.28;14.25;;;;;;;5.50;74.01;100229.59;5081676;28;20411;-74
2020/12/20 04:52:53;;;;;;;36.33;12.48;;;;;;;5.44;74.26;100233.91;5088996;28;20028;-76
2020/12/20 04:55:21;;;;;;;35.35;13.80;;;;;;;5.44;74.98;100236.56;5077499;28;20044;-75
2020/12/20 04:57:46;;;;;;;35.45;14.13;;;;;;;5.46;74.67;100237.16;5061886;28;20411;-74
2020/12/20 05:00:12;;;;;;;41.83;15.05;;;;;;;5.36;74.76;100232.31;5069252;28;20028;-78
2020/12/20 05:02:37;;;;;;;36.85;15.18;;;;;;;5.41;75.01;100244.94;5069501;28;20028;-75
2020/12/20 05:05:03;;;;;;;33.30;13.40;;;;;;;5.39;75.36;100245.13;5069212;28;20047;-75
2020/12/20 05:07:28;;;;;;;43.83;18.70;;;;;;;5.41;75.31;100244.94;5069171;28;20029;-74
2020/12/20 05:09:54;;;;;;;37.33;15.80;;;;;;;5.38;75.79;100245.34;5068812;28;20377;-79
2020/12/20 05:12:30;;;;;;;33.95;15.75;;;;;;;5.36;75.49;100247.41;5069329;28;20039;-77
2020/12/20 05:14:57;;;;;;;44.35;16.58;;;;;;;5.40;75.95;100253.94;5070939;28;20036;-78
2020/12/20 05:17:24;;;;;;;46.58;17.90;;;;;;;5.39;75.68;100254.94;5072474;28;20046;-78
2020/12/20 05:19:49;;;;;;;33.78;14.35;;;;;;;5.37;75.81;100255.16;5089750;28;20509;-78
2020/12/20 05:22:17;;;;;;;38.97;17.48;;;;;;;5.33;75.89;100251.28;5084871;28;20069;-76
2020/12/20 05:24:47;;;;;;;38.95;16.13;;;;;;;5.35;76.28;100249.25;5069696;28;20157;-76
2020/12/20 05:27:24;;;;;;;44.30;16.48;;;;;;;5.33;75.83;100248.63;5069676;28;20032;-76
2020/12/20 05:29:50;;;;;;;33.55;14.75;;;;;;;5.34;76.28;100254.78;5089796;28;20040;-77
2020/12/20 05:32:27;;;;;;;34.97;15.95;;;;;;;5.33;76.37;100250.50;5081776;28;20110;-78
2020/12/20 05:35:08;;;;;;;40.90;15.90;;;;;;;5.35;75.69;100264.38;5086981;28;20032;-80
2020/12/20 05:37:34;;;;;;;32.42;15.60;;;;;;;5.31;76.37;100255.19;5069183;28;20024;-79
2020/12/20 05:40:09;;;;;;;39.30;17.65;;;;;;;5.31;76.36;100253.38;5071929;28;20036;-77
2020/12/20 05:42:35;;;;;;;41.25;17.52;;;;;;;5.19;76.35;100245.25;5083745;28;20020;-77
2020/12/20 05:45:11;;;;;;;47.47;18.73;;;;;;;5.26;76.55;100255.81;5075371;28;20595;-80
2020/12/20 05:47:38;;;;;;;46.75;19.80;;;;;;;5.31;76.56;100265.78;5073593;28;20024;-78
2020/12/20 05:50:11;;;;;;;49.88;20.50;;;;;;;5.28;76.78;100259.06;5089442;28;20031;-81
2020/12/20 05:52:36;;;;;;;55.67;24.27;;;;;;;5.33;76.46;100266.41;5074120;28;20032;-78
2020/12/20 05:55:10;;;;;;;40.30;19.52;;;;;;;5.31;76.51;100269.28;5068579;28;20028;-77
2020/12/20 05:57:35;;;;;;;47.85;20.02;;;;;;;5.36;76.94;100276.59;5070966;28;20554;-78
2020/12/20 06:00:01;;;;;;;47.60;19.50;;;;;;;5.35;76.69;100274.97;5082587;28;20149;-77
2020/12/20 06:02:27;;;;;;;45.08;18.30;;;;;;;5.38;76.44;100275.38;5070956;28;20036;-80
2020/12/20 06:04:54;;;;;;;45.75;18.98;;;;;;;5.39;76.37;100273.53;5068999;28;20024;-80
2020/12/20 06:07:26;;;;;;;50.03;19.50;;;;;;;5.40;76.75;100283.13;5069140;28;20028;-79
2020/12/20 06:09:55;;;;;;;34.00;15.25;;;;;;;5.40;77.10;100278.59;5068919;28;20051;-80
2020/12/20 06:12:27;;;;;;;45.15;19.10;;;;;;;5.40;76.60;100275.94;5080309;28;20055;-79
2020/12/20 06:14:53;;;;;;;42.17;17.65;;;;;;;5.41;77.04;100279.44;5068611;28;20055;-75
2020/12/20 06:17:20;;;;;;;44.25;19.23;;;;;;;5.44;76.79;100281.66;5073702;28;20046;-74
2020/12/20 06:19:58;;;;;;;37.67;16.27;;;;;;;5.43;76.84;100275.53;5078907;28;20668;-75
2020/12/20 06:22:29;;;;;;;42.75;16.67;;;;;;;5.46;76.89;100284.91;5072516;28;20037;-75
2020/12/20 06:24:57;;;;;;;45.65;18.35;;;;;;;5.43;76.96;100280.84;5072974;28;20044;-76
2020/12/20 06:27:25;;;;;;;45.13;18.67;;;;;;;5.42;77.24;100284.53;5072904;28;20457;-75
2020/12/20 06:29:55;;;;;;;46.08;18.90;;;;;;;5.42;76.76;100287.19;5072825;28;20033;-75
2020/12/20 06:32:32;;;;;;;49.00;19.02;;;;;;;5.46;76.90;100292.88;5074816;28;20032;-78
2020/12/20 06:34:59;;;;;;;40.65;17.98;;;;;;;5.43;77.21;100286.16;5085574;28;20551;-77
2020/12/20 06:37:25;;;;;;;67.90;28.55;;;;;;;5.43;76.80;100280.84;5072674;28;20024;-73
2020/12/20 06:39:51;;;;;;;42.30;18.33;;;;;;;5.48;77.51;100292.66;5073798;28;20071;-74
2020/12/20 06:42:35;;;;;;;50.00;18.17;;;;;;;5.48;77.15;100304.09;5073461;28;20483;-74
2020/12/20 06:45:20;;;;;;;37.55;17.30;;;;;;;5.48;77.14;100301.44;5073060;28;20039;-76
2020/12/20 06:47:46;;;;;;;41.55;21.15;;;;;;;5.44;77.00;100292.25;5068759;28;20032;-75
2020/12/20 06:50:12;;;;;;;47.17;19.92;;;;;;;5.48;77.39;100300.63;5072173;28;20040;-74
2020/12/20 06:52:46;;;;;;;44.92;22.40;;;;;;;5.50;77.48;100299.38;5076704;28;20406;-75
2020/12/20 06:55:14;;;;;;;50.08;21.20;;;;;;;5.51;77.09;100290.41;5081703;28;20073;-75
2020/12/20 06:58:01;;;;;;;47.05;20.35;;;;;;;5.55;76.98;100296.91;5072546;28;20032;-76
2020/12/20 07:00:53;;;;;;;49.15;18.95;;;;;;;5.56;76.77;100301.19;5066064;28;20083;-76
2020/12/20 07:03:24;;;;;;;45.40;18.38;;;;;;;5.50;77.21;100294.06;5064825;28;20035;-75
2020/12/20 07:05:57;;;;;;;45.72;16.48;;;;;;;5.54;77.23;100300.59;5077106;28;20483;-77
2020/12/20 07:08:23;;;;;;;43.47;18.13;;;;;;;5.54;77.29;100307.72;5072006;28;20025;-76
2020/12/20 07:10:51;;;;;;;46.10;18.00;;;;;;;5.49;76.83;100299.59;5071973;28;20024;-77
2020/12/20 07:13:40;;;;;;;30.65;13.57;;;;;;;5.56;77.32;100316.31;5078654;28;20086;-76
2020/12/20 07:16:08;;;;;;;39.90;16.85;;;;;;;5.57;76.99;100315.28;5084795;28;20024;-75
2020/12/20 07:18:52;;;;;;;35.47;15.98;;;;;;;5.52;77.25;100304.50;5070961;28;20029;-76
2020/12/20 07:21:18;;;;;;;32.47;14.73;;;;;;;5.58;77.32;100315.06;5089217;28;20409;-75
2020/12/20 07:23:47;;;;;;;40.58;16.27;;;;;;;5.57;77.28;100313.44;5092066;28;20127;-75
2020/12/20 07:26:14;;;;;;;36.15;15.02;;;;;;;5.59;77.00;100311.38;5090654;28;20081;-76
2020/12/20 07:28:39;;;;;;;35.13;15.45;;;;;;;5.60;77.22;100315.69;5072793;28;20044;-74
2020/12/20 07:31:13;;;;;;;35.08;15.60;;;;;;;5.61;76.88;100314.66;5070816;28;20468;-73
2020/12/20 07:33:38;;;;;;;38.00;17.98;;;;;;;5.65;76.74;100316.88;5075922;28;20066;-75
2020/12/20 07:36:04;;;;;;;36.90;15.70;;;;;;;5.66;76.51;100314.00;5079180;28;20032;-76
2020/12/20 07:38:29;;;;;;;29.75;15.98;;;;;;;5.63;76.73;100309.13;5083046;28;20134;-76
2020/12/20 07:40:55;;;;;;;31.33;15.55;;;;;;;5.65;76.43;100303.59;5091789;28;20025;-76
2020/12/20 07:43:20;;;;;;;44.40;17.13;;;;;;;5.66;76.17;100307.88;5078337;28;20032;-76
2020/12/20 07:46:00;;;;;;;40.92;15.93;;;;;;;5.64;76.58;100310.75;5071363;28;20036;-74
2020/12/20 07:48:26;;;;;;;34.63;15.57;;;;;;;5.69;76.63;100312.75;5071937;28;20032;-74
2020/12/20 07:50:52;;;;;;;32.85;15.13;;;;;;;5.67;76.63;100315.63;5076647;28;20031;-73
2020/12/20 07:53:18;;;;;;;42.00;14.85;;;;;;;5.67;76.45;100325.44;5090385;28;20027;-75
2020/12/20 07:55:48;;;;;;;35.85;16.00;;;;;;;5.65;76.33;100320.34;5089721;28;20036;-75
2020/12/20 07:58:15;;;;;;;31.23;13.65;;;;;;;5.64;76.38;100318.72;5070827;28;20032;-75
2020/12/20 08:00:44;;;;;;;35.78;14.02;;;;;;;5.66;76.43;100326.47;5074700;28;20036;-77
2020/12/20 08:03:12;;;;;;;30.70;14.57;;;;;;;5.68;76.48;100327.88;5058994;28;20033;-74
2020/12/20 08:05:38;;;;;;;32.97;14.73;;;;;;;5.69;76.38;100331.34;5071433;28;20461;-74
2020/12/20 08:08:04;;;;;;;31.23;14.82;;;;;;;5.72;76.48;100333.59;5075589;28;20096;-74
2020/12/20 08:10:29;;;;;;;33.58;13.70;;;;;;;5.72;75.84;100328.28;5084089;28;20154;-76
2020/12/20 08:12:54;;;;;;;34.05;13.35;;;;;;;5.70;75.29;100335.63;5069128;28;20487;-76
2020/12/20 08:15:20;;;;;;;32.45;12.50;;;;;;;5.69;75.75;100334.81;5098789;28;20052;-75
2020/12/20 08:17:46;;;;;;;27.33;12.85;;;;;;;5.69;75.92;100331.34;5063473;28;20035;-76
2020/12/20 08:20:13;;;;;;;30.58;13.82;;;;;;;5.66;75.79;100331.78;5061350;28;20024;-74
2020/12/20 08:22:42;;;;;;;30.35;13.02;;;;;;;5.66;76.18;100334.44;5070080;28;20473;-73
2020/12/20 08:25:09;;;;;;;29.55;12.65;;;;;;;5.64;76.38;100328.50;5069703;28;20013;-75
2020/12/20 08:27:39;;;;;;;35.88;15.02;;;;;;;5.66;76.13;100335.22;5070565;28;20033;-77
2020/12/20 08:30:07;;;;;;;29.48;14.20;;;;;;;5.63;76.01;100326.88;5078226;28;20047;-75
2020/12/20 08:32:43;;;;;;;29.60;13.27;;;;;;;5.64;76.21;100323.19;5086022;28;20060;-74
2020/12/20 08:35:22;;;;;;;29.88;14.23;;;;;;;5.66;77.10;100319.31;5069199;28;20028;-73
2020/12/20 08:37:53;;;;;;;29.95;12.75;;;;;;;5.64;76.99;100318.72;5079327;28;20028;-72
2020/12/20 08:40:19;;;;;;;27.25;11.63;;;;;;;5.58;76.90;100303.66;5069489;28;20029;-78
2020/12/20 08:42:51;;;;;;;28.88;12.32;;;;;;;5.66;76.73;100308.69;5050515;28;20112;-82
2020/12/20 08:45:19;;;;;;;28.40;11.45;;;;;;;5.58;76.96;100301.00;5057381;28;20086;-76
2020/12/20 08:47:45;;;;;;;33.17;12.52;;;;;;;5.60;77.57;100307.72;5070317;28;20028;-75
2020/12/20 08:50:12;;;;;;;25.83;12.38;;;;;;;5.65;77.57;100309.75;5069920;28;20029;-73
2020/12/20 08:52:37;;;;;;;27.15;12.70;;;;;;;5.67;77.28;100306.88;5066544;28;20023;-72
2020/12/20 08:55:04;;;;;;;25.30;11.48;;;;;;;5.71;76.67;100311.53;5068720;28;20025;-72
2020/12/20 08:57:32;;;;;;;24.80;11.90;;;;;;;5.72;76.70;100304.38;5070081;28;20077;-73
2020/12/20 09:00:09;;;;;;;27.27;10.98;;;;;;;5.77;76.68;100301.91;5070788;28;20540;-73
2020/12/20 09:02:35;;;;;;;26.48;12.63;;;;;;;5.80;76.55;100303.31;5070023;28;20029;-72
2020/12/20 09:05:11;;;;;;;21.85;11.05;;;;;;;5.84;76.00;100297.38;5069090;28;20445;-74
2020/12/20 09:07:47;;;;;;;22.25;10.25;;;;;;;5.87;76.06;100299.59;5069954;28;20021;-76
2020/12/20 09:10:26;;;;;;;19.27;10.20;;;;;;;5.97;75.41;100306.28;5066393;28;20036;-80
2020/12/20 09:12:52;;;;;;;22.90;9.27;;;;;;;6.00;75.40;100292.63;5068636;28;20032;-81
2020/12/20 09:15:21;;;;;;;20.67;10.05;;;;;;;6.04;75.09;100299.09;5069388;28;20060;-75
2020/12/20 09:17:50;;;;;;;24.80;13.02;;;;;;;6.05;75.10;100280.31;5068951;28;20032;-76
2020/12/20 09:20:18;;;;;;;29.10;13.07;;;;;;;6.13;75.17;100289.88;5069344;28;20115;-79
2020/12/20 09:22:45;;;;;;;31.52;14.18;;;;;;;6.18;74.80;100292.69;5069215;28;20478;-74
2020/12/20 09:25:13;;;;;;;24.37;11.53;;;;;;;6.16;74.05;100286.75;5069445;28;20432;-73
2020/12/20 09:27:50;;;;;;;21.38;11.07;;;;;;;6.20;74.32;100284.47;5069705;28;20817;-71
2020/12/20 09:30:16;;;;;;;20.30;8.85;;;;;;;6.23;73.41;100278.75;5069163;28;20028;-70
2020/12/20 09:32:41;;;;;;;12.13;6.97;;;;;;;6.25;73.70;100282.81;5070206;28;20056;-75
2020/12/20 09:35:08;;;;;;;21.13;9.25;;;;;;;6.23;72.81;100270.78;5065336;28;20024;-72
2020/12/20 09:37:41;;;;;;;15.77;8.15;;;;;;;6.23;72.98;100271.59;5068583;28;20120;-70
2020/12/20 09:40:09;;;;;;;25.48;10.63;;;;;;;6.26;72.78;100283.63;5069260;28;20040;-70
2020/12/20 09:42:42;;;;;;;22.52;11.18;;;;;;;6.18;72.24;100262.66;5068125;28;20042;-69
2020/12/20 09:45:10;;;;;;;16.58;8.27;;;;;;;6.28;72.73;100275.44;5068059;28;20028;-69
2020/12/20 09:47:44;;;;;;;18.17;8.15;;;;;;;6.22;72.93;100269.94;5069532;28;20167;-70
2020/12/20 09:50:11;;;;;;;16.90;8.32;;;;;;;6.25;72.59;100268.72;5069715;28;20036;-72
2020/12/20 09:52:37;;;;;;;16.63;7.70;;;;;;;6.23;72.96;100258.31;5073124;28;20029;-69
2020/12/20 09:55:07;;;;;;;18.92;8.45;;;;;;;6.27;72.46;100271.97;5072719;28;20101;-70
2020/12/20 09:57:32;;;;;;;18.63;9.07;;;;;;;6.28;72.45;100270.13;5071482;28;20029;-70
2020/12/20 09:59:58;;;;;;;15.15;7.70;;;;;;;6.28;72.50;100268.28;5072517;28;20096;-70
2020/12/20 10:02:24;;;;;;;15.77;8.25;;;;;;;6.32;72.24;100272.13;5072745;28;20029;-75
2020/12/20 10:04:50;;;;;;;19.38;6.82;;;;;;;6.32;71.67;100269.47;5071757;28;20484;-71
2020/12/20 10:07:15;;;;;;;17.83;7.25;;;;;;;6.27;72.17;100256.03;5072540;28;20048;-72
2020/12/20 10:09:41;;;;;;;13.65;6.35;;;;;;;6.32;71.81;100266.00;5072663;28;20066;-73
2020/12/20 10:12:06;;;;;;;11.32;7.25;;;;;;;6.31;71.80;100259.06;5072993;28;20493;-72
2020/12/20 10:14:33;;;;;;;8.75;4.97;;;;;;;6.33;70.04;100260.47;5072264;28;20031;-73
2020/12/20 10:16:58;;;;;;;10.55;3.97;;;;;;;6.31;70.55;100259.06;5071930;28;20475;-74
2020/12/20 10:19:24;;;;;;;10.82;5.43;;;;;;;6.36;70.64;100260.03;5072308;28;20039;-74
2020/12/20 10:21:53;;;;;;;10.80;5.47;;;;;;;6.38;69.79;100252.69;5072625;28;20036;-74
2020/12/20 10:24:20;;;;;;;8.63;5.45;;;;;;;6.32;69.63;100250.88;5072715;28;20403;-74
2020/12/20 10:26:48;;;;;;;9.93;5.57;;;;;;;6.34;69.39;100245.34;5072534;28;20060;-74
2020/12/20 10:29:16;;;;;;;11.23;5.32;;;;;;;6.34;69.87;100232.06;5072525;28;20033;-75
2020/12/20 10:31:43;;;;;;;11.00;5.95;;;;;;;6.36;70.00;100237.97;5072705;28;20138;-74
2020/12/20 10:34:08;;;;;;;8.10;4.72;;;;;;;6.37;68.58;100240.41;5071761;28;20135;-73
2020/12/20 10:36:35;;;;;;;10.18;5.20;;;;;;;6.34;69.60;100229.41;5071511;28;20511;-71
2020/12/20 10:39:01;;;;;;;14.93;5.32;;;;;;;6.40;69.57;100226.69;5073595;28;20417;-71
2020/12/20 10:41:33;;;;;;;10.60;5.13;;;;;;;6.41;68.77;100238.94;5072685;28;21545;-70
2020/12/20 10:43:58;;;;;;;8.52;4.53;;;;;;;6.39;69.24;100217.06;5073468;28;20028;-70
2020/12/20 10:46:24;;;;;;;9.70;4.95;;;;;;;6.35;69.22;100201.81;5072426;28;20474;-70
2020/12/20 10:48:49;;;;;;;8.95;4.38;;;;;;;6.52;68.68;100225.97;5071179;28;20158;-70
2020/12/20 10:51:19;;;;;;;7.75;4.10;;;;;;;6.45;67.60;100218.06;5073034;28;20471;-70
2020/12/20 10:53:45;;;;;;;12.07;4.88;;;;;;;6.42;67.46;100226.47;5072382;28;20024;-70
2020/12/20 10:56:10;;;;;;;7.55;4.72;;;;;;;6.39;69.17;100217.06;5072596;28;20035;-70
2020/12/20 10:58:36;;;;;;;10.70;4.60;;;;;;;6.34;67.87;100224.91;5073165;28;20549;-71
2020/12/20 11:01:04;;;;;;;9.98;5.32;;;;;;;6.20;68.95;100215.41;5071289;28;20093;-71
2020/12/20 11:03:30;;;;;;;;;;;;;;;6.28;68.83;100217.81;5073424;28;20491;-71
2020/12/20 11:05:55;;;;;;;9.75;4.93;;;;;;;6.16;68.73;100203.63;5071541;28;19912;-69
2020/12/20 11:08:20;;;;;;;12.93;5.38;;;;;;;6.19;68.95;100219.94;5071740;28;20142;-70
2020/12/20 11:10:46;;;;;;;9.82;4.10;;;;;;;6.15;68.50;100218.75;5072597;28;20531;-70
2020/12/20 11:13:11;;;;;;;10.68;4.80;;;;;;;6.08;69.18;100218.78;5071049;28;20041;-69
2020/12/20 11:15:37;;;;;;;8.52;4.65;;;;;;;6.08;68.70;100220.66;5072675;28;20104;-69
2020/12/20 11:18:02;;;;;;;11.50;5.75;;;;;;;6.09;69.87;100215.13;5059809;28;20040;-70
2020/12/20 11:20:28;;;;;;;7.95;4.35;;;;;;;6.03;69.07;100207.19;5071294;28;20399;-70